sensor_id;sensor_type;location;lat;lon;timestamp;pressure;altitude;pressure_sealevel;temperature;humidity
68301;BME280;55146;47.468;18.806;2023-03-14T00:01:22;99189.47;;;9.72;52.53
68301;BME280;55146;47.468;18.806;2023-03-14T00:03:48;99168.53;;;9.76;52.69
68301;BME280;55146;47.468;18.806;2023-03-14T00:06:13;99168.59;;;9.95;52.34
68301;BME280;55146;47.468;18.806;2023-03-14T00:08:40;99166.31;;;10.02;52.23
68301;BME280;55146;47.468;18.806;2023-03-14T00:11:08;99166.25;;;10.07;52.49
68301;BME280;55146;47.468;18.806;2023-03-14T00:13:34;99158.66;;;10.23;52.09
68301;BME280;55146;47.468;18.806;2023-03-14T00:16:07;99161.63;;;10.26;51.97
68301;BME280;55146;47.468;18.806;2023-03-14T00:18:33;99166.22;;;10.31;51.63
68301;BME280;55146;47.468;18.806;2023-03-14T00:21:00;99158.75;;;10.18;51.93
68301;BME280;55146;47.468;18.806;2023-03-14T00:23:27;99150.38;;;10.04;52.26
68301;BME280;55146;47.468;18.806;2023-03-14T00:25:53;99150.56;;;10.07;52.37
68301;BME280;55146;47.468;18.806;2023-03-14T00:28:18;99146.97;;;9.88;53.04
68301;BME280;55146;47.468;18.806;2023-03-14T00:30:43;99148.37;;;9.86;53.03
68301;BME280;55146;47.468;18.806;2023-03-14T00:33:09;99134.00;;;9.94;52.96
68301;BME280;55146;47.468;18.806;2023-03-14T00:35:34;99124.87;;;9.98;52.95
68301;BME280;55146;47.468;18.806;2023-03-14T00:37:59;99115.09;;;10.11;52.89
68301;BME280;55146;47.468;18.806;2023-03-14T00:40:25;99121.38;;;10.17;52.59
68301;BME280;55146;47.468;18.806;2023-03-14T00:42:50;99116.75;;;10.12;52.73
68301;BME280;55146;47.468;18.806;2023-03-14T00:45:15;99124.75;;;10.08;52.84
68301;BME280;55146;47.468;18.806;2023-03-14T00:47:41;99113.66;;;9.95;52.99
68301;BME280;55146;47.468;18.806;2023-03-14T00:50:11;99114.81;;;9.89;53.58
68301;BME280;55146;47.468;18.806;2023-03-14T00:52:37;99120.38;;;9.84;53.81
68301;BME280;55146;47.468;18.806;2023-03-14T00:55:03;99117.09;;;9.82;54.00
68301;BME280;55146;47.468;18.806;2023-03-14T00:57:28;99109.78;;;9.96;53.45
68301;BME280;55146;47.468;18.806;2023-03-14T00:59:54;99110.09;;;9.94;53.38
68301;BME280;55146;47.468;18.806;2023-03-14T01:02:19;99112.97;;;9.84;53.58
68301;BME280;55146;47.468;18.806;2023-03-14T01:04:47;99104.75;;;9.60;54.24
68301;BME280;55146;47.468;18.806;2023-03-14T01:07:12;99104.91;;;9.45;54.85
68301;BME280;55146;47.468;18.806;2023-03-14T01:09:38;99096.31;;;9.52;54.74
68301;BME280;55146;47.468;18.806;2023-03-14T01:12:03;99098.22;;;9.56;54.70
68301;BME280;55146;47.468;18.806;2023-03-14T01:14:29;99095.00;;;9.49;54.98
68301;BME280;55146;47.468;18.806;2023-03-14T01:16:54;99084.31;;;9.48;54.84
68301;BME280;55146;47.468;18.806;2023-03-14T01:19:29;99075.88;;;9.39;55.15
68301;BME280;55146;47.468;18.806;2023-03-14T01:21:55;99064.56;;;9.46;54.95
68301;BME280;55146;47.468;18.806;2023-03-14T01:24:20;99053.56;;;9.22;55.78
68301;BME280;55146;47.468;18.806;2023-03-14T01:26:45;99045.12;;;9.18;55.83
68301;BME280;55146;47.468;18.806;2023-03-14T01:29:11;99054.03;;;9.05;56.04
68301;BME280;55146;47.468;18.806;2023-03-14T01:31:36;99047.78;;;9.00;56.22
68301;BME280;55146;47.468;18.806;2023-03-14T01:34:02;99036.00;;;8.99;56.28
68301;BME280;55146;47.468;18.806;2023-03-14T01:36:27;99043.25;;;8.85;56.48
68301;BME280;55146;47.468;18.806;2023-03-14T01:38:53;99040.78;;;8.83;56.80
68301;BME280;55146;47.468;18.806;2023-03-14T01:41:21;99020.44;;;8.89;56.81
68301;BME280;55146;47.468;18.806;2023-03-14T01:43:48;99017.13;;;8.92;56.75
68301;BME280;55146;47.468;18.806;2023-03-14T01:46:18;99014.88;;;9.00;56.68
68301;BME280;55146;47.468;18.806;2023-03-14T01:48:55;99012.00;;;9.10;56.50
68301;BME280;55146;47.468;18.806;2023-03-14T01:52:03;99019.53;;;8.99;56.69
68301;BME280;55146;47.468;18.806;2023-03-14T01:54:43;99018.44;;;9.00;56.56
68301;BME280;55146;47.468;18.806;2023-03-14T01:57:14;99014.69;;;8.91;56.62
68301;BME280;55146;47.468;18.806;2023-03-14T01:59:46;99008.38;;;8.90;56.68
68301;BME280;55146;47.468;18.806;2023-03-14T02:02:14;99009.59;;;8.79;57.10
68301;BME280;55146;47.468;18.806;2023-03-14T02:04:41;98995.59;;;8.81;57.06
68301;BME280;55146;47.468;18.806;2023-03-14T02:09:46;98977.38;;;8.66;56.66
68301;BME280;55146;47.468;18.806;2023-03-14T02:12:16;98990.62;;;8.54;57.37
68301;BME280;55146;47.468;18.806;2023-03-14T02:14:43;98975.97;;;8.69;57.81
68301;BME280;55146;47.468;18.806;2023-03-14T02:17:14;98972.91;;;8.99;57.25
68301;BME280;55146;47.468;18.806;2023-03-14T02:20:03;98970.09;;;9.28;56.01
68301;BME280;55146;47.468;18.806;2023-03-14T02:22:33;98971.50;;;9.25;55.85
68301;BME280;55146;47.468;18.806;2023-03-14T02:27:41;98956.37;;;9.28;56.12
68301;BME280;55146;47.468;18.806;2023-03-14T02:32:37;98956.19;;;9.62;55.03
68301;BME280;55146;47.468;18.806;2023-03-14T02:35:08;98953.00;;;9.73;54.75
68301;BME280;55146;47.468;18.806;2023-03-14T02:37:54;98959.16;;;9.84;54.20
68301;BME280;55146;47.468;18.806;2023-03-14T02:40:21;98955.00;;;9.87;53.93
68301;BME280;55146;47.468;18.806;2023-03-14T02:42:46;98958.22;;;9.75;54.43
68301;BME280;55146;47.468;18.806;2023-03-14T02:47:39;98948.44;;;9.45;54.75
68301;BME280;55146;47.468;18.806;2023-03-14T02:50:14;98957.81;;;9.20;55.32
68301;BME280;55146;47.468;18.806;2023-03-14T02:52:41;98939.88;;;9.09;55.84
68301;BME280;55146;47.468;18.806;2023-03-14T02:55:06;98941.09;;;8.98;56.28
68301;BME280;55146;47.468;18.806;2023-03-14T02:57:32;98928.56;;;8.92;56.45
68301;BME280;55146;47.468;18.806;2023-03-14T02:59:58;98932.34;;;8.72;57.22
68301;BME280;55146;47.468;18.806;2023-03-14T03:02:25;98926.03;;;8.72;57.21
68301;BME280;55146;47.468;18.806;2023-03-14T03:04:50;98925.97;;;8.77;57.13
68301;BME280;55146;47.468;18.806;2023-03-14T03:07:15;98906.00;;;8.76;57.29
68301;BME280;55146;47.468;18.806;2023-03-14T03:09:41;98894.94;;;9.05;56.93
68301;BME280;55146;47.468;18.806;2023-03-14T03:12:06;98895.91;;;9.33;56.04
68301;BME280;55146;47.468;18.806;2023-03-14T03:14:32;98884.66;;;9.53;55.60
68301;BME280;55146;47.468;18.806;2023-03-14T03:16:57;98879.06;;;9.77;54.95
68301;BME280;55146;47.468;18.806;2023-03-14T03:19:23;98882.75;;;10.05;53.96
68301;BME280;55146;47.468;18.806;2023-03-14T03:21:48;98875.88;;;10.21;53.45
68301;BME280;55146;47.468;18.806;2023-03-14T03:24:13;98866.00;;;10.20;53.48
68301;BME280;55146;47.468;18.806;2023-03-14T03:26:39;98877.22;;;10.24;53.24
68301;BME280;55146;47.468;18.806;2023-03-14T03:29:04;98885.25;;;10.20;53.58
68301;BME280;55146;47.468;18.806;2023-03-14T03:31:29;98880.63;;;10.15;53.71
68301;BME280;55146;47.468;18.806;2023-03-14T03:33:56;98890.53;;;10.17;53.83
68301;BME280;55146;47.468;18.806;2023-03-14T03:36:25;98879.44;;;10.22;53.58
68301;BME280;55146;47.468;18.806;2023-03-14T03:38:51;98877.25;;;10.05;53.90
68301;BME280;55146;47.468;18.806;2023-03-14T03:41:16;98886.16;;;9.97;54.19
68301;BME280;55146;47.468;18.806;2023-03-14T03:43:42;98871.53;;;10.01;54.23
68301;BME280;55146;47.468;18.806;2023-03-14T03:46:08;98869.38;;;9.98;54.24
68301;BME280;55146;47.468;18.806;2023-03-14T03:48:34;98864.94;;;9.84;54.68
68301;BME280;55146;47.468;18.806;2023-03-14T03:50:59;98875.75;;;9.80;55.11
68301;BME280;55146;47.468;18.806;2023-03-14T03:53:25;98884.31;;;9.92;54.69
68301;BME280;55146;47.468;18.806;2023-03-14T03:55:50;98885.34;;;9.96;54.54
68301;BME280;55146;47.468;18.806;2023-03-14T03:58:16;98882.66;;;10.10;54.07
68301;BME280;55146;47.468;18.806;2023-03-14T04:00:41;98889.44;;;9.99;54.50
68301;BME280;55146;47.468;18.806;2023-03-14T04:03:06;98888.63;;;9.98;54.42
68301;BME280;55146;47.468;18.806;2023-03-14T04:05:32;98885.38;;;9.78;55.19
68301;BME280;55146;47.468;18.806;2023-03-14T04:07:57;98883.25;;;9.74;55.34
68301;BME280;55146;47.468;18.806;2023-03-14T04:10:23;98882.72;;;9.72;55.52
68301;BME280;55146;47.468;18.806;2023-03-14T04:12:48;98883.66;;;9.63;55.81
68301;BME280;55146;47.468;18.806;2023-03-14T04:15:13;98890.34;;;9.57;56.17
68301;BME280;55146;47.468;18.806;2023-03-14T04:17:39;98898.22;;;9.45;56.70
68301;BME280;55146;47.468;18.806;2023-03-14T04:20:05;98895.44;;;9.50;56.58
68301;BME280;55146;47.468;18.806;2023-03-14T04:22:35;98894.53;;;9.54;56.61
68301;BME280;55146;47.468;18.806;2023-03-14T04:25:01;98883.38;;;9.46;56.86
68301;BME280;55146;47.468;18.806;2023-03-14T04:27:28;98877.91;;;9.46;56.93
68301;BME280;55146;47.468;18.806;2023-03-14T04:29:54;98877.06;;;9.26;57.53
68301;BME280;55146;47.468;18.806;2023-03-14T04:32:19;98882.00;;;9.29;57.62
68301;BME280;55146;47.468;18.806;2023-03-14T04:34:45;98875.69;;;9.29;57.67
68301;BME280;55146;47.468;18.806;2023-03-14T04:37:10;98867.88;;;9.17;57.90
68301;BME280;55146;47.468;18.806;2023-03-14T04:39:36;98876.50;;;9.29;57.80
68301;BME280;55146;47.468;18.806;2023-03-14T04:42:01;98867.25;;;9.25;57.98
68301;BME280;55146;47.468;18.806;2023-03-14T04:44:27;98868.84;;;9.26;57.97
68301;BME280;55146;47.468;18.806;2023-03-14T04:46:52;98863.34;;;9.26;57.91
68301;BME280;55146;47.468;18.806;2023-03-14T04:49:18;98864.25;;;9.22;58.07
68301;BME280;55146;47.468;18.806;2023-03-14T04:51:43;98867.91;;;9.36;57.77
68301;BME280;55146;47.468;18.806;2023-03-14T04:54:08;98876.62;;;9.38;57.63
68301;BME280;55146;47.468;18.806;2023-03-14T04:56:34;98869.38;;;9.47;57.28
68301;BME280;55146;47.468;18.806;2023-03-14T04:58:59;98872.41;;;9.64;56.77
68301;BME280;55146;47.468;18.806;2023-03-14T05:01:24;98863.69;;;9.76;56.38
68301;BME280;55146;47.468;18.806;2023-03-14T05:03:50;98874.09;;;9.79;56.21
68301;BME280;55146;47.468;18.806;2023-03-14T05:06:15;98868.09;;;9.77;56.29
68301;BME280;55146;47.468;18.806;2023-03-14T05:08:41;98863.13;;;9.79;56.20
68301;BME280;55146;47.468;18.806;2023-03-14T05:11:06;98858.94;;;9.82;56.07
68301;BME280;55146;47.468;18.806;2023-03-14T05:13:31;98859.28;;;9.94;55.58
68301;BME280;55146;47.468;18.806;2023-03-14T05:16:08;98861.88;;;10.04;55.23
68301;BME280;55146;47.468;18.806;2023-03-14T05:18:34;98854.75;;;10.03;55.26
68301;BME280;55146;47.468;18.806;2023-03-14T05:20:59;98845.50;;;10.12;54.93
68301;BME280;55146;47.468;18.806;2023-03-14T05:23:25;98842.31;;;10.24;54.46
68301;BME280;55146;47.468;18.806;2023-03-14T05:25:50;98849.13;;;10.27;54.44
68301;BME280;55146;47.468;18.806;2023-03-14T05:28:15;98849.53;;;10.34;54.08
68301;BME280;55146;47.468;18.806;2023-03-14T05:30:41;98843.03;;;10.43;53.84
68301;BME280;55146;47.468;18.806;2023-03-14T05:33:06;98846.19;;;10.50;53.77
68301;BME280;55146;47.468;18.806;2023-03-14T05:35:31;98846.72;;;10.52;53.57
68301;BME280;55146;47.468;18.806;2023-03-14T05:37:57;98852.72;;;10.54;53.66
68301;BME280;55146;47.468;18.806;2023-03-14T05:40:22;98846.41;;;10.54;53.41
68301;BME280;55146;47.468;18.806;2023-03-14T05:42:48;98856.31;;;10.55;53.44
68301;BME280;55146;47.468;18.806;2023-03-14T05:45:13;98848.84;;;10.55;53.35
68301;BME280;55146;47.468;18.806;2023-03-14T05:47:39;98853.84;;;10.53;53.71
68301;BME280;55146;47.468;18.806;2023-03-14T05:50:04;98845.91;;;10.52;53.57
68301;BME280;55146;47.468;18.806;2023-03-14T05:52:30;98838.97;;;10.54;53.74
68301;BME280;55146;47.468;18.806;2023-03-14T05:54:55;98848.34;;;10.53;53.68
68301;BME280;55146;47.468;18.806;2023-03-14T05:57:21;98850.28;;;10.53;53.80
68301;BME280;55146;47.468;18.806;2023-03-14T05:59:46;98855.97;;;10.57;53.62
68301;BME280;55146;47.468;18.806;2023-03-14T06:02:11;98853.56;;;10.55;53.62
68301;BME280;55146;47.468;18.806;2023-03-14T06:04:37;98854.25;;;10.47;53.75
68301;BME280;55146;47.468;18.806;2023-03-14T06:07:02;98855.09;;;10.61;53.35
68301;BME280;55146;47.468;18.806;2023-03-14T06:09:28;98847.12;;;10.60;53.44
68301;BME280;55146;47.468;18.806;2023-03-14T06:11:53;98847.03;;;10.65;53.03
68301;BME280;55146;47.468;18.806;2023-03-14T06:14:18;98854.56;;;10.59;53.31
68301;BME280;55146;47.468;18.806;2023-03-14T06:16:44;98853.56;;;10.55;53.56
68301;BME280;55146;47.468;18.806;2023-03-14T06:19:09;98854.03;;;10.57;53.63
68301;BME280;55146;47.468;18.806;2023-03-14T06:21:35;98840.09;;;10.53;53.79
68301;BME280;55146;47.468;18.806;2023-03-14T06:24:00;98855.16;;;10.42;54.10
68301;BME280;55146;47.468;18.806;2023-03-14T06:26:26;98847.09;;;10.32;54.31
68301;BME280;55146;47.468;18.806;2023-03-14T06:28:51;98848.63;;;10.38;54.04
68301;BME280;55146;47.468;18.806;2023-03-14T06:31:18;98849.16;;;10.40;54.49
68301;BME280;55146;47.468;18.806;2023-03-14T06:33:43;98863.47;;;10.37;54.17
68301;BME280;55146;47.468;18.806;2023-03-14T06:36:09;98862.06;;;10.40;54.10
68301;BME280;55146;47.468;18.806;2023-03-14T06:38:34;98864.63;;;10.36;54.24
68301;BME280;55146;47.468;18.806;2023-03-14T06:41:04;98861.47;;;10.43;54.24
68301;BME280;55146;47.468;18.806;2023-03-14T06:43:30;98866.97;;;10.43;54.31
68301;BME280;55146;47.468;18.806;2023-03-14T06:45:55;98872.47;;;10.43;54.29
68301;BME280;55146;47.468;18.806;2023-03-14T06:48:20;98864.22;;;10.43;54.33
68301;BME280;55146;47.468;18.806;2023-03-14T06:50:48;98874.72;;;10.54;54.17
68301;BME280;55146;47.468;18.806;2023-03-14T06:53:13;98868.41;;;10.54;54.18
68301;BME280;55146;47.468;18.806;2023-03-14T06:55:38;98877.88;;;10.62;53.95
68301;BME280;55146;47.468;18.806;2023-03-14T06:58:04;98880.44;;;10.58;54.12
68301;BME280;55146;47.468;18.806;2023-03-14T07:00:29;98877.16;;;10.56;54.23
68301;BME280;55146;47.468;18.806;2023-03-14T07:02:55;98877.56;;;10.49;54.75
68301;BME280;55146;47.468;18.806;2023-03-14T07:05:20;98880.22;;;10.68;53.96
68301;BME280;55146;47.468;18.806;2023-03-14T07:07:46;98875.47;;;10.74;53.50
68301;BME280;55146;47.468;18.806;2023-03-14T07:10:11;98884.59;;;10.69;53.64
68301;BME280;55146;47.468;18.806;2023-03-14T07:12:36;98883.28;;;10.80;53.47
68301;BME280;55146;47.468;18.806;2023-03-14T07:15:02;98888.87;;;10.89;53.20
68301;BME280;55146;47.468;18.806;2023-03-14T07:17:28;98886.97;;;10.89;53.32
68301;BME280;55146;47.468;18.806;2023-03-14T07:19:53;98882.06;;;10.86;53.50
68301;BME280;55146;47.468;18.806;2023-03-14T07:22:18;98886.25;;;10.98;53.48
68301;BME280;55146;47.468;18.806;2023-03-14T07:24:43;98872.25;;;11.21;52.76
68301;BME280;55146;47.468;18.806;2023-03-14T07:27:09;98872.31;;;11.30;52.66
68301;BME280;55146;47.468;18.806;2023-03-14T07:29:34;98868.00;;;11.51;51.91
68301;BME280;55146;47.468;18.806;2023-03-14T07:31:59;98859.06;;;11.68;51.92
68301;BME280;55146;47.468;18.806;2023-03-14T07:34:25;98865.44;;;11.91;51.37
68301;BME280;55146;47.468;18.806;2023-03-14T07:36:50;98856.88;;;12.23;50.65
68301;BME280;55146;47.468;18.806;2023-03-14T07:39:16;98859.03;;;12.35;49.54
68301;BME280;55146;47.468;18.806;2023-03-14T07:41:41;98849.63;;;12.36;50.04
68301;BME280;55146;47.468;18.806;2023-03-14T07:44:07;98850.50;;;12.45;50.44
68301;BME280;55146;47.468;18.806;2023-03-14T07:46:32;98848.44;;;12.50;49.61
68301;BME280;55146;47.468;18.806;2023-03-14T07:48:58;98848.50;;;12.68;49.11
68301;BME280;55146;47.468;18.806;2023-03-14T07:51:23;98849.00;;;12.78;48.76
68301;BME280;55146;47.468;18.806;2023-03-14T07:53:48;98851.59;;;12.75;49.02
68301;BME280;55146;47.468;18.806;2023-03-14T07:56:14;98845.47;;;12.86;49.05
68301;BME280;55146;47.468;18.806;2023-03-14T07:58:39;98832.00;;;12.85;49.20
68301;BME280;55146;47.468;18.806;2023-03-14T08:01:05;98834.94;;;12.97;49.15
68301;BME280;55146;47.468;18.806;2023-03-14T08:03:30;98823.53;;;12.81;49.26
68301;BME280;55146;47.468;18.806;2023-03-14T08:05:56;98815.72;;;13.14;48.85
68301;BME280;55146;47.468;18.806;2023-03-14T08:08:21;98814.09;;;13.30;48.23
68301;BME280;55146;47.468;18.806;2023-03-14T08:10:46;98810.19;;;13.40;48.40
68301;BME280;55146;47.468;18.806;2023-03-14T08:13:12;98819.44;;;13.53;48.05
68301;BME280;55146;47.468;18.806;2023-03-14T08:15:37;98822.22;;;13.70;48.14
68301;BME280;55146;47.468;18.806;2023-03-14T08:18:03;98824.19;;;13.69;48.39
68301;BME280;55146;47.468;18.806;2023-03-14T08:20:29;98821.88;;;13.71;48.50
68301;BME280;55146;47.468;18.806;2023-03-14T08:22:56;98813.75;;;13.84;48.13
68301;BME280;55146;47.468;18.806;2023-03-14T08:25:22;98801.88;;;13.92;47.69
68301;BME280;55146;47.468;18.806;2023-03-14T08:27:48;98791.81;;;14.34;47.31
68301;BME280;55146;47.468;18.806;2023-03-14T08:30:15;98800.97;;;14.72;46.00
68301;BME280;55146;47.468;18.806;2023-03-14T08:32:41;98811.75;;;14.94;45.99
68301;BME280;55146;47.468;18.806;2023-03-14T08:35:07;98809.59;;;15.29;45.17
68301;BME280;55146;47.468;18.806;2023-03-14T08:37:34;98797.34;;;15.72;44.67
68301;BME280;55146;47.468;18.806;2023-03-14T08:40:00;98789.75;;;16.14;42.95
68301;BME280;55146;47.468;18.806;2023-03-14T08:42:25;98803.06;;;16.21;42.73
68301;BME280;55146;47.468;18.806;2023-03-14T08:44:51;98791.78;;;16.50;42.48
68301;BME280;55146;47.468;18.806;2023-03-14T08:47:17;98779.09;;;16.61;41.58
68301;BME280;55146;47.468;18.806;2023-03-14T08:49:42;98766.47;;;16.88;41.46
68301;BME280;55146;47.468;18.806;2023-03-14T08:52:08;98769.47;;;17.07;40.97
68301;BME280;55146;47.468;18.806;2023-03-14T08:54:33;98751.41;;;17.01;40.75
68301;BME280;55146;47.468;18.806;2023-03-14T08:56:59;98741.16;;;17.29;40.67
68301;BME280;55146;47.468;18.806;2023-03-14T08:59:24;98744.00;;;17.45;40.16
68301;BME280;55146;47.468;18.806;2023-03-14T09:01:50;98740.97;;;17.50;40.23
68301;BME280;55146;47.468;18.806;2023-03-14T09:04:15;98732.56;;;17.74;39.91
68301;BME280;55146;47.468;18.806;2023-03-14T09:06:41;98740.22;;;17.65;40.30
68301;BME280;55146;47.468;18.806;2023-03-14T09:09:06;98738.25;;;17.66;40.04
68301;BME280;55146;47.468;18.806;2023-03-14T09:11:32;98731.56;;;17.55;40.56
68301;BME280;55146;47.468;18.806;2023-03-14T09:13:58;98729.97;;;17.97;40.02
68301;BME280;55146;47.468;18.806;2023-03-14T09:16:24;98732.28;;;18.39;39.57
68301;BME280;55146;47.468;18.806;2023-03-14T09:18:49;98718.59;;;18.34;38.68
68301;BME280;55146;47.468;18.806;2023-03-14T09:21:15;98724.81;;;18.43;39.17
68301;BME280;55146;47.468;18.806;2023-03-14T09:23:40;98710.88;;;18.58;39.01
68301;BME280;55146;47.468;18.806;2023-03-14T09:26:06;98728.94;;;18.80;38.33
68301;BME280;55146;47.468;18.806;2023-03-14T09:28:31;98728.69;;;19.05;38.07
68301;BME280;55146;47.468;18.806;2023-03-14T09:30:57;98707.88;;;19.18;37.82
68301;BME280;55146;47.468;18.806;2023-03-14T09:33:23;98708.69;;;19.18;37.49
68301;BME280;55146;47.468;18.806;2023-03-14T09:35:49;98709.50;;;19.38;37.70
68301;BME280;55146;47.468;18.806;2023-03-14T09:38:14;98706.53;;;19.47;37.20
68301;BME280;55146;47.468;18.806;2023-03-14T09:40:40;98686.56;;;19.25;36.93
68301;BME280;55146;47.468;18.806;2023-03-14T09:43:10;98698.41;;;19.03;37.41
68301;BME280;55146;47.468;18.806;2023-03-14T09:45:40;98684.81;;;18.82;38.75
68301;BME280;55146;47.468;18.806;2023-03-14T09:48:12;98676.44;;;18.82;38.76
68301;BME280;55146;47.468;18.806;2023-03-14T09:50:51;98668.19;;;19.05;38.50
68301;BME280;55146;47.468;18.806;2023-03-14T09:53:23;98668.03;;;18.98;38.13
68301;BME280;55146;47.468;18.806;2023-03-14T09:55:50;98654.34;;;18.74;38.00
68301;BME280;55146;47.468;18.806;2023-03-14T09:58:21;98664.22;;;18.71;37.49
68301;BME280;55146;47.468;18.806;2023-03-14T10:00:53;98650.59;;;18.66;37.90
68301;BME280;55146;47.468;18.806;2023-03-14T10:05:46;98643.00;;;18.82;37.53
68301;BME280;55146;47.468;18.806;2023-03-14T10:08:13;98638.03;;;18.91;37.14
68301;BME280;55146;47.468;18.806;2023-03-14T10:10:39;98636.56;;;18.97;37.36
68301;BME280;55146;47.468;18.806;2023-03-14T10:13:22;98634.44;;;19.29;36.62
68301;BME280;55146;47.468;18.806;2023-03-14T10:16:02;98629.56;;;19.26;36.16
68301;BME280;55146;47.468;18.806;2023-03-14T10:18:30;98631.03;;;19.39;36.34
68301;BME280;55146;47.468;18.806;2023-03-14T10:21:25;98628.03;;;19.67;36.15
68301;BME280;55146;47.468;18.806;2023-03-14T10:23:52;98625.47;;;19.82;35.46
68301;BME280;55146;47.468;18.806;2023-03-14T10:26:24;98629.37;;;19.54;35.68
68301;BME280;55146;47.468;18.806;2023-03-14T10:28:53;98627.41;;;19.55;36.55
68301;BME280;55146;47.468;18.806;2023-03-14T10:31:24;98627.44;;;19.58;36.33
68301;BME280;55146;47.468;18.806;2023-03-14T10:34:04;98631.00;;;19.55;36.45
68301;BME280;55146;47.468;18.806;2023-03-14T10:36:32;98624.28;;;19.40;36.52
68301;BME280;55146;47.468;18.806;2023-03-14T10:42:27;98624.75;;;19.23;37.53
68301;BME280;55146;47.468;18.806;2023-03-14T10:45:02;98608.97;;;19.31;37.07
68301;BME280;55146;47.468;18.806;2023-03-14T10:47:29;98602.97;;;19.48;37.15
68301;BME280;55146;47.468;18.806;2023-03-14T10:49:55;98599.31;;;19.67;35.83
68301;BME280;55146;47.468;18.806;2023-03-14T10:52:28;98604.94;;;19.70;36.49
68301;BME280;55146;47.468;18.806;2023-03-14T10:55:12;98596.25;;;19.75;36.11
68301;BME280;55146;47.468;18.806;2023-03-14T10:57:39;98591.56;;;19.79;36.10
68301;BME280;55146;47.468;18.806;2023-03-14T11:00:08;98593.78;;;19.70;35.72
68301;BME280;55146;47.468;18.806;2023-03-14T11:03:11;98589.81;;;19.71;36.61
68301;BME280;55146;47.468;18.806;2023-03-14T11:05:49;98573.09;;;19.71;36.23
68301;BME280;55146;47.468;18.806;2023-03-14T11:08:53;98574.00;;;20.02;36.92
68301;BME280;55146;47.468;18.806;2023-03-14T11:11:22;98571.44;;;20.16;36.47
68301;BME280;55146;47.468;18.806;2023-03-14T11:13:57;98565.56;;;20.25;36.26
68301;BME280;55146;47.468;18.806;2023-03-14T11:16:34;98559.22;;;20.28;36.42
68301;BME280;55146;47.468;18.806;2023-03-14T11:19:14;98549.34;;;20.07;36.12
68301;BME280;55146;47.468;18.806;2023-03-14T11:21:50;98554.94;;;19.81;37.08
68301;BME280;55146;47.468;18.806;2023-03-14T11:24:27;98538.66;;;19.64;37.64
68301;BME280;55146;47.468;18.806;2023-03-14T11:27:03;98538.81;;;19.48;37.37
68301;BME280;55146;47.468;18.806;2023-03-14T11:32:24;98526.00;;;19.24;37.92
68301;BME280;55146;47.468;18.806;2023-03-14T11:34:54;98533.97;;;19.26;37.09
68301;BME280;55146;47.468;18.806;2023-03-14T11:37:33;98547.34;;;19.17;37.38
68301;BME280;55146;47.468;18.806;2023-03-14T11:40:14;98539.28;;;19.12;37.45
68301;BME280;55146;47.468;18.806;2023-03-14T11:42:43;98528.66;;;18.98;37.66
68301;BME280;55146;47.468;18.806;2023-03-14T11:45:35;98535.13;;;18.83;38.36
68301;BME280;55146;47.468;18.806;2023-03-14T11:48:15;98536.06;;;18.71;38.02
68301;BME280;55146;47.468;18.806;2023-03-14T11:50:44;98530.34;;;18.64;38.09
68301;BME280;55146;47.468;18.806;2023-03-14T11:53:17;98517.53;;;18.59;38.55
68301;BME280;55146;47.468;18.806;2023-03-14T11:55:44;98523.03;;;18.56;38.40
68301;BME280;55146;47.468;18.806;2023-03-14T12:00:50;98508.13;;;18.48;38.38
68301;BME280;55146;47.468;18.806;2023-03-14T12:03:52;98508.41;;;18.43;38.17
68301;BME280;55146;47.468;18.806;2023-03-14T12:09:08;98508.63;;;18.35;38.56
68301;BME280;55146;47.468;18.806;2023-03-14T12:11:52;98503.84;;;18.35;39.23
68301;BME280;55146;47.468;18.806;2023-03-14T12:14:33;98498.66;;;18.34;37.97
68301;BME280;55146;47.468;18.806;2023-03-14T12:17:21;98482.97;;;18.26;37.49
68301;BME280;55146;47.468;18.806;2023-03-14T12:20:04;98489.34;;;18.26;37.02
68301;BME280;55146;47.468;18.806;2023-03-14T12:22:42;98478.66;;;18.28;37.26
68301;BME280;55146;47.468;18.806;2023-03-14T12:28:03;98468.91;;;18.18;37.29
68301;BME280;55146;47.468;18.806;2023-03-14T12:30:34;98463.41;;;18.22;37.61
68301;BME280;55146;47.468;18.806;2023-03-14T12:42:21;98439.97;;;18.42;37.47
68301;BME280;55146;47.468;18.806;2023-03-14T12:49:45;98437.84;;;18.36;37.56
68301;BME280;55146;47.468;18.806;2023-03-14T12:52:17;98431.41;;;18.32;37.24
68301;BME280;55146;47.468;18.806;2023-03-14T12:54:54;98421.59;;;18.18;37.49
68301;BME280;55146;47.468;18.806;2023-03-14T13:00:00;98422.09;;;18.24;37.90
68301;BME280;55146;47.468;18.806;2023-03-14T13:02:38;98424.81;;;18.21;38.11
68301;BME280;55146;47.468;18.806;2023-03-14T13:05:17;98419.81;;;18.10;38.28
68301;BME280;55146;47.468;18.806;2023-03-14T13:12:39;98419.22;;;18.01;38.59
68301;BME280;55146;47.468;18.806;2023-03-14T13:15:17;98426.91;;;17.89;38.82
68301;BME280;55146;47.468;18.806;2023-03-14T13:17:43;98430.09;;;17.91;38.94
68301;BME280;55146;47.468;18.806;2023-03-14T13:20:26;98428.88;;;17.88;39.04
68301;BME280;55146;47.468;18.806;2023-03-14T13:22:53;98422.97;;;17.90;39.12
68301;BME280;55146;47.468;18.806;2023-03-14T13:25:18;98436.78;;;17.86;39.48
68301;BME280;55146;47.468;18.806;2023-03-14T13:27:46;98440.38;;;17.87;39.44
68301;BME280;55146;47.468;18.806;2023-03-14T13:30:24;98444.75;;;17.88;39.47
68301;BME280;55146;47.468;18.806;2023-03-14T13:32:51;98437.50;;;17.83;39.95
68301;BME280;55146;47.468;18.806;2023-03-14T13:35:24;98445.13;;;17.86;39.76
68301;BME280;55146;47.468;18.806;2023-03-14T13:38:00;98435.47;;;17.99;40.34
68301;BME280;55146;47.468;18.806;2023-03-14T13:40:32;98436.63;;;17.98;40.51
68301;BME280;55146;47.468;18.806;2023-03-14T13:43:28;98439.53;;;18.02;39.73
68301;BME280;55146;47.468;18.806;2023-03-14T13:48:44;98440.63;;;18.16;38.99
68301;BME280;55146;47.468;18.806;2023-03-14T13:51:12;98436.66;;;18.17;38.98